createdAt,value
2022-08-20T00:03:35.162Z,21.5
2022-08-20T00:08:43.640Z,21.25
2022-08-20T00:13:53.398Z,21.19
2022-08-20T00:19:03.160Z,21.06
2022-08-20T00:24:11.651Z,20.94
2022-08-20T00:29:22.591Z,20.69
2022-08-20T00:34:31.810Z,20.25
2022-08-20T00:39:41.607Z,20.19
2022-08-20T00:44:51.956Z,20.25
2022-08-20T00:50:01.723Z,20.12
2022-08-20T00:55:11.505Z,20.19
2022-08-20T01:00:21.882Z,20
2022-08-20T01:11:41.627Z,19.81
2022-08-20T01:16:52.593Z,19.38
2022-08-20T01:22:03.651Z,19.62
2022-08-20T01:27:13.398Z,19.56
2022-08-20T01:32:21.876Z,19.69
2022-08-20T01:37:31.689Z,19.81
2022-08-20T01:42:59.229Z,19.81
2022-08-20T01:47:53.719Z,19.88
2022-08-20T01:53:02.841Z,19.94
2022-08-20T01:58:13.233Z,19.94
2022-08-20T02:03:22.356Z,19.88
2022-08-20T02:08:30.932Z,19.88
2022-08-20T02:13:39.304Z,19.88
2022-08-20T02:18:49.714Z,19.75
2022-08-20T02:23:58.838Z,19.81
2022-08-20T02:29:07.973Z,19.75
2022-08-20T02:34:23.116Z,19.75
2022-08-20T02:39:26.198Z,19.69
2022-08-20T02:44:35.956Z,19.75
2022-08-20T02:49:46.382Z,19.81
2022-08-20T02:54:55.475Z,19.94
2022-08-20T03:00:05.236Z,20
2022-08-20T03:05:13.732Z,20
2022-08-20T03:10:22.204Z,20
2022-08-20T03:15:31.317Z,19.94
2022-08-20T03:20:39.814Z,20
2022-08-20T03:25:48.918Z,19.88
2022-08-20T03:30:59.978Z,19.88
2022-08-20T03:36:09.714Z,19.81
2022-08-20T03:41:18.198Z,19.69
2022-08-20T03:46:26.689Z,19.75
2022-08-20T03:51:58.383Z,19.69
2022-08-20T03:56:44.277Z,19.62
2022-08-20T04:01:52.875Z,19.62
2022-08-20T04:07:03.155Z,19.56
2022-08-20T04:12:12.293Z,19.56
2022-08-20T04:17:21.398Z,19.56
2022-08-20T04:22:29.876Z,19.5
2022-08-20T04:27:40.278Z,19.56
2022-08-20T04:32:49.395Z,19.62
2022-08-20T04:37:57.890Z,19.69
2022-08-20T04:43:06.459Z,19.75
2022-08-20T04:48:16.754Z,19.75
2022-08-20T04:53:26.080Z,19.62
2022-08-20T04:58:33.801Z,19.75
2022-08-20T05:03:42.882Z,19.69
2022-08-20T05:08:52.044Z,19.75
2022-08-20T05:14:01.126Z,19.69
2022-08-20T05:19:10.257Z,19.81
2022-08-20T05:24:19.410Z,19.81
2022-08-20T05:29:29.775Z,19.88
2022-08-20T05:34:38.260Z,19.94
2022-08-20T05:39:46.838Z,19.81
2022-08-20T05:44:55.854Z,19.81
2022-08-20T05:50:05.646Z,19.94
2022-08-20T05:55:14.771Z,19.88
2022-08-20T06:00:23.839Z,19.88
2022-08-20T06:05:31.693Z,19.94
2022-08-20T06:10:42.740Z,20
2022-08-20T06:15:51.868Z,20
2022-08-20T06:21:00.965Z,19.94
2022-08-20T06:26:10.142Z,19.94
2022-08-20T06:31:19.202Z,19.88
2022-08-20T06:36:27.689Z,19.94
2022-08-20T06:41:37.487Z,19.94
2022-08-20T06:46:45.941Z,19.94
2022-08-20T06:51:56.321Z,20.06
2022-08-20T06:57:05.492Z,20
2022-08-20T07:02:15.226Z,20.12
2022-08-20T07:07:24.360Z,20.19
2022-08-20T07:12:35.389Z,20
2022-08-20T07:17:44.478Z,20
2022-08-20T07:22:54.249Z,20
2022-08-20T07:28:02.111Z,20.12
2022-08-20T07:33:11.199Z,20.38
2022-08-20T07:38:20.963Z,20.44
2022-08-20T07:43:30.126Z,20.62
2022-08-20T07:48:39.202Z,20.62
2022-08-20T07:53:47.698Z,20.62
2022-08-20T07:58:57.474Z,20.62
2022-08-20T08:04:06.570Z,20.44
2022-08-20T08:09:16.386Z,20.44
2022-08-20T08:14:26.104Z,20.5
2022-08-20T08:19:33.927Z,20.62
2022-08-20T08:24:57.657Z,20.88
2022-08-20T08:29:52.755Z,21.25
2022-08-20T08:35:03.168Z,21.19
2022-08-20T08:40:12.550Z,20.94
2022-08-20T08:45:22.056Z,20.94
2022-08-20T08:50:54.597Z,21.12
2022-08-20T08:55:41.571Z,21.25
2022-08-20T09:01:01.780Z,21.38
2022-08-20T09:06:01.089Z,21.69
2022-08-20T09:11:09.603Z,21.81
2022-08-20T09:16:19.318Z,21.69
2022-08-20T09:21:28.452Z,21.75
2022-08-20T09:26:39.373Z,22.12
2022-08-20T09:31:46.558Z,22.44
2022-08-20T09:36:54.531Z,22.31
2022-08-20T09:42:03.635Z,22.25
2022-08-20T09:47:12.756Z,22.06
2022-08-20T09:52:21.250Z,22.12
2022-08-20T09:57:30.355Z,22.56
2022-08-20T10:02:38.835Z,22.94
2022-08-20T10:07:47.973Z,22.69
2022-08-20T10:12:57.714Z,22.69
2022-08-20T10:18:06.197Z,22.75
2022-08-20T10:23:16.626Z,22.69
2022-08-20T10:28:25.716Z,22.5
2022-08-20T10:33:34.214Z,22.19
2022-08-20T10:38:43.321Z,22.69
2022-08-20T10:43:51.795Z,23.25
2022-08-20T10:49:00.934Z,23.56
2022-08-20T10:54:12.872Z,23.75
2022-08-20T10:59:19.163Z,23.38
2022-08-20T11:04:27.647Z,22.75
2022-08-20T11:09:42.449Z,22.5
2022-08-20T11:15:56.917Z,22.75
2022-08-20T11:16:19.717Z,22.75
2022-08-20T11:21:30.998Z,23.19
2022-08-20T11:21:40.091Z,23.19
2022-08-20T11:26:50.997Z,23.25
2022-08-20T11:26:59.085Z,23.25
2022-08-20T11:32:10.355Z,23.44
2022-08-20T11:32:17.796Z,23.44
2022-08-20T11:37:26.820Z,23.38
2022-08-20T11:37:33.798Z,23.38
2022-08-20T11:43:14.479Z,23.62
2022-08-20T11:45:09.376Z,23.62
2022-08-20T11:50:24.115Z,23.75
2022-08-20T11:51:14.131Z,23.75
2022-08-20T11:55:53.073Z,23.69
2022-08-20T11:59:06.496Z,23.69
2022-08-20T12:04:20.595Z,23.31
2022-08-20T12:10:43.314Z,23.69
2022-08-20T12:11:32.776Z,23.69
2022-08-20T12:16:42.355Z,23.69
2022-08-20T12:24:39.793Z,23.69
2022-08-20T12:27:23.599Z,23.69
2022-08-20T12:32:19.321Z,23.81
2022-08-20T12:39:07.734Z,23.94
2022-08-20T12:39:57.767Z,23.94
2022-08-20T12:44:22.633Z,24
2022-08-20T12:49:57.937Z,23.94
2022-08-20T12:57:16.380Z,24
2022-08-20T13:05:27.256Z,24.06
2022-08-20T13:10:42.808Z,24
2022-08-20T13:15:12.126Z,24
2022-08-20T13:20:21.340Z,24.19
2022-08-20T13:25:31.634Z,24.19
2022-08-20T13:30:40.755Z,24.06
2022-08-20T13:35:53.073Z,24.44
2022-08-20T13:41:03.483Z,24.5
2022-08-20T13:46:14.530Z,24.62
2022-08-20T13:51:27.774Z,24.25
2022-08-20T13:56:36.598Z,24
2022-08-20T14:01:48.335Z,23.75
2022-08-20T14:07:00.597Z,23.19
2022-08-20T14:12:09.075Z,23.38
2022-08-20T14:17:20.124Z,23.69
2022-08-20T14:22:32.390Z,23.81
2022-08-20T14:27:42.222Z,23.94
2022-08-20T14:32:51.974Z,23.88
2022-08-20T14:38:01.079Z,24.06
2022-08-20T14:43:10.226Z,24
2022-08-20T14:48:19.953Z,24.12
2022-08-20T14:53:30.997Z,24.25
2022-08-20T14:58:40.822Z,24.19
2022-08-20T15:03:55.641Z,24.19
2022-08-20T15:09:06.706Z,24.25
2022-08-20T15:14:18.578Z,24.12
2022-08-20T15:19:24.931Z,24.12
2022-08-20T15:24:34.679Z,24.12
2022-08-20T15:29:43.796Z,23.94
2022-08-20T15:34:55.410Z,23.75
2022-08-20T15:40:01.608Z,23.5
2022-08-20T15:45:13.082Z,23.56
2022-08-20T15:50:45.882Z,23.25
2022-08-20T15:55:56.273Z,23.56
2022-08-20T16:01:25.642Z,23.69
2022-08-20T16:06:15.154Z,23.62
2022-08-20T16:11:24.914Z,23.5
2022-08-20T16:16:37.237Z,23.44
2022-08-20T16:21:46.370Z,23.31
2022-08-20T16:27:13.421Z,23.38
2022-08-20T16:32:22.514Z,23.31
2022-08-20T16:37:31.638Z,23.19
2022-08-20T16:42:40.117Z,23.06
2022-08-20T16:47:48.594Z,22.94
2022-08-20T16:52:58.642Z,23
2022-08-20T16:58:06.832Z,22.94
2022-08-20T17:03:15.954Z,22.88
2022-08-20T17:08:24.600Z,22.69
2022-08-20T17:13:33.554Z,22.69
2022-08-20T17:18:42.035Z,22.56
2022-08-20T17:23:56.738Z,22.62
2022-08-20T17:28:59.646Z,22.44
2022-08-20T17:34:13.171Z,22.44
2022-08-20T17:39:22.070Z,22.38
2022-08-20T17:44:37.968Z,22.25
2022-08-20T17:50:03.216Z,22.12
2022-08-20T17:55:09.656Z,22.19
2022-08-20T18:00:49.737Z,22.12
2022-08-20T18:05:43.285Z,22
2022-08-20T18:10:10.696Z,21.94
2022-08-20T18:15:24.425Z,22
2022-08-20T18:20:27.640Z,21.88
2022-08-20T18:25:37.461Z,21.75
2022-08-20T18:30:48.437Z,21.75
2022-08-20T18:35:58.203Z,21.75
2022-08-20T18:41:06.677Z,21.81
2022-08-20T18:46:16.450Z,21.62
2022-08-20T18:51:26.195Z,21.5
2022-08-20T18:56:36.611Z,21.38
2022-08-20T19:01:47.067Z,21.44
2022-08-20T19:06:57.974Z,21.31
2022-08-20T19:12:03.956Z,21.25
2022-08-20T19:17:13.074Z,21.19
2022-08-20T19:22:21.567Z,21
2022-08-20T19:27:31.312Z,20.88
2022-08-20T19:32:47.308Z,20.88
2022-08-20T19:37:51.835Z,20.88
2022-08-20T19:43:00.186Z,20.81
2022-08-20T19:48:10.362Z,20.69
2022-08-20T19:53:18.838Z,20.62
2022-08-20T19:58:27.322Z,20.5
2022-08-20T20:03:36.442Z,20.5
2022-08-20T20:08:44.919Z,20.38
2022-08-20T20:13:54.036Z,20.31
2022-08-20T20:19:27.058Z,20.38
2022-08-20T20:24:11.700Z,20.31
2022-08-20T20:29:21.411Z,20.31
2022-08-20T20:34:30.522Z,20.25
2022-08-20T20:39:39.714Z,20.12
2022-08-20T20:44:48.771Z,20.19
2022-08-20T20:49:59.154Z,20.06
2022-08-20T20:55:08.294Z,20.19
2022-08-20T21:00:17.396Z,20.19
2022-08-20T21:05:27.170Z,20.25
2022-08-20T21:10:35.639Z,20.06
2022-08-20T21:15:44.754Z,20
2022-08-20T21:20:54.531Z,19.94
2022-08-20T21:26:04.280Z,19.81
2022-08-20T21:31:14.694Z,19.81
2022-08-20T21:36:23.794Z,19.81
2022-08-20T21:41:33.570Z,19.69
2022-08-20T21:47:09.560Z,19.69
2022-08-20T21:52:19.315Z,19.56
2022-08-20T21:57:30.372Z,19.5
2022-08-20T22:02:43.957Z,19.44
2022-08-20T22:07:56.273Z,19.44
2022-08-20T22:13:04.124Z,19.44
2022-08-20T22:18:16.440Z,19.31
2022-08-20T22:23:26.192Z,19.25
2022-08-20T22:28:39.253Z,19.19
2022-08-20T22:33:55.619Z,19.06
2022-08-20T22:39:11.579Z,19.12
2022-08-20T22:44:46.176Z,19.12
2022-08-20T22:49:43.284Z,19.06
2022-08-20T22:54:59.415Z,18.94
2022-08-20T23:00:14.936Z,18.88
2022-08-20T23:05:30.489Z,18.88
2022-08-20T23:10:46.618Z,18.88
2022-08-20T23:16:00.847Z,18.75
2022-08-20T23:21:17.048Z,18.75
2022-08-20T23:26:31.258Z,18.75
2022-08-20T23:31:48.057Z,18.69
2022-08-20T23:36:15.473Z,18.75
2022-08-20T23:41:23.315Z,18.81
2022-08-20T23:46:32.436Z,18.75
2022-08-20T23:51:42.196Z,18.62
2022-08-20T23:56:50.677Z,18.56
